createdAt,value
2022-08-20T00:00:03.509Z,18.75
2022-08-20T00:01:03.507Z,18.75
2022-08-20T00:02:03.468Z,18.75
2022-08-20T00:03:03.503Z,18.75
2022-08-20T00:04:03.504Z,18.75
2022-08-20T00:05:04.478Z,18.75
2022-08-20T00:06:04.491Z,18.81
2022-08-20T00:07:03.512Z,18.75
2022-08-20T00:08:03.669Z,18.75
2022-08-20T00:09:03.668Z,18.75
2022-08-20T00:10:04.014Z,18.75
2022-08-20T00:11:03.997Z,18.75
2022-08-20T00:12:03.998Z,18.75
2022-08-20T00:13:04.148Z,18.75
2022-08-20T00:14:04.146Z,18.75
2022-08-20T00:15:05.043Z,18.75
2022-08-20T00:16:04.225Z,18.69
2022-08-20T00:17:04.226Z,18.69
2022-08-20T00:18:04.230Z,18.69
2022-08-20T00:19:04.310Z,18.69
2022-08-20T00:20:04.466Z,18.69
2022-08-20T00:21:03.605Z,18.69
2022-08-20T00:22:03.589Z,18.69
2022-08-20T00:23:06.239Z,18.69
2022-08-20T00:24:03.590Z,18.69
2022-08-20T00:25:03.665Z,18.69
2022-08-20T00:26:03.751Z,18.69
2022-08-20T00:27:03.755Z,18.69
2022-08-20T00:28:03.902Z,18.69
2022-08-20T00:29:03.919Z,18.69
2022-08-20T00:30:03.986Z,18.69
2022-08-20T00:31:04.074Z,18.69
2022-08-20T00:32:04.065Z,18.69
2022-08-20T00:33:04.068Z,18.69
2022-08-20T00:34:04.064Z,18.69
2022-08-20T00:35:04.242Z,18.69
2022-08-20T00:36:04.222Z,18.69
2022-08-20T00:37:04.332Z,18.69
2022-08-20T00:38:04.551Z,18.69
2022-08-20T00:39:04.230Z,18.62
2022-08-20T00:40:04.577Z,18.69
2022-08-20T00:41:03.518Z,18.62
2022-08-20T00:42:04.138Z,18.62
2022-08-20T00:43:04.319Z,18.62
2022-08-20T00:44:04.386Z,18.62
2022-08-20T00:45:04.470Z,18.62
2022-08-20T00:46:03.525Z,18.62
2022-08-20T00:47:03.686Z,18.62
2022-08-20T00:48:03.662Z,18.62
2022-08-20T00:49:03.828Z,18.62
2022-08-20T00:50:03.929Z,18.62
2022-08-20T00:51:03.907Z,18.62
2022-08-20T00:52:03.977Z,18.62
2022-08-20T00:53:04.067Z,18.62
2022-08-20T00:54:04.230Z,18.62
2022-08-20T00:55:04.311Z,18.62
2022-08-20T00:56:04.386Z,18.62
2022-08-20T00:57:04.487Z,18.62
2022-08-20T00:58:04.690Z,18.69
2022-08-20T00:59:03.588Z,18.62
2022-08-20T01:00:03.675Z,18.62
2022-08-20T01:01:03.661Z,18.62
2022-08-20T01:02:03.784Z,18.62
2022-08-20T01:03:03.828Z,18.62
2022-08-20T01:04:03.912Z,18.62
2022-08-20T01:05:03.906Z,18.62
2022-08-20T01:06:04.141Z,18.62
2022-08-20T01:07:04.061Z,18.62
2022-08-20T01:08:04.153Z,18.62
2022-08-20T01:09:04.148Z,18.62
2022-08-20T01:10:04.223Z,18.62
2022-08-20T01:11:04.221Z,18.62
2022-08-20T01:12:04.300Z,18.62
2022-08-20T01:13:04.395Z,18.62
2022-08-20T01:14:04.379Z,18.62
2022-08-20T01:15:04.478Z,18.62
2022-08-20T01:16:03.510Z,18.62
2022-08-20T01:17:03.687Z,18.62
2022-08-20T01:18:03.581Z,18.62
2022-08-20T01:19:03.676Z,18.62
2022-08-20T01:20:03.833Z,18.62
2022-08-20T01:21:03.829Z,18.62
2022-08-20T01:22:03.832Z,18.62
2022-08-20T01:23:03.824Z,18.62
2022-08-20T01:24:03.995Z,18.62
2022-08-20T01:25:03.911Z,18.62
2022-08-20T01:26:03.987Z,18.62
2022-08-20T01:27:04.168Z,18.62
2022-08-20T01:28:04.156Z,18.62
2022-08-20T01:29:04.143Z,18.62
2022-08-20T01:30:06.054Z,18.62
2022-08-20T01:31:04.465Z,18.62
2022-08-20T01:32:03.521Z,18.62
2022-08-20T01:33:03.518Z,18.62
2022-08-20T01:34:03.506Z,18.62
2022-08-20T01:35:03.845Z,18.62
2022-08-20T01:36:03.827Z,18.62
2022-08-20T01:37:03.987Z,18.62
2022-08-20T01:38:03.905Z,18.62
2022-08-20T01:39:04.157Z,18.62
2022-08-20T01:40:04.106Z,18.62
2022-08-20T01:41:04.151Z,18.62
2022-08-20T01:42:04.150Z,18.62
2022-08-20T01:43:04.319Z,18.62
2022-08-20T01:44:04.328Z,18.56
2022-08-20T01:45:04.451Z,18.56
2022-08-20T01:46:04.646Z,18.56
2022-08-20T01:47:03.529Z,18.56
2022-08-20T01:48:04.243Z,18.56
2022-08-20T01:49:04.390Z,18.56
2022-08-20T01:50:04.394Z,18.56
2022-08-20T01:51:03.499Z,18.56
2022-08-20T01:52:03.587Z,18.56
2022-08-20T01:53:03.745Z,18.56
2022-08-20T01:54:03.755Z,18.56
2022-08-20T01:55:03.838Z,18.50
2022-08-20T01:56:03.745Z,18.56
2022-08-20T01:57:03.750Z,18.56
2022-08-20T01:58:03.986Z,18.50
2022-08-20T01:59:03.900Z,18.50
2022-08-20T02:00:03.979Z,18.50
2022-08-20T02:01:04.064Z,18.50
2022-08-20T02:02:04.150Z,18.50
2022-08-20T02:03:04.223Z,18.50
2022-08-20T02:04:04.259Z,18.50
2022-08-20T02:05:04.389Z,18.50
2022-08-20T02:06:04.398Z,18.50
2022-08-20T02:07:04.415Z,18.50
2022-08-20T02:08:04.390Z,18.50
2022-08-20T02:09:03.451Z,18.44
2022-08-20T02:10:03.587Z,18.50
2022-08-20T02:11:03.663Z,18.50
2022-08-20T02:12:03.747Z,18.50
2022-08-20T02:13:03.908Z,18.50
2022-08-20T02:14:03.919Z,18.50
2022-08-20T02:15:04.076Z,18.50
2022-08-20T02:16:03.986Z,18.50
2022-08-20T02:17:04.223Z,18.50
2022-08-20T02:18:04.173Z,18.50
2022-08-20T02:19:04.316Z,18.50
2022-08-20T02:20:04.383Z,18.44
2022-08-20T02:21:04.388Z,18.44
2022-08-20T02:22:04.393Z,18.44
2022-08-20T02:23:04.383Z,18.44
2022-08-20T02:24:04.390Z,18.44
2022-08-20T02:25:04.390Z,18.44
2022-08-20T02:26:03.509Z,18.44
2022-08-20T02:27:03.679Z,18.44
2022-08-20T02:28:03.675Z,18.44
2022-08-20T02:29:03.673Z,18.44
2022-08-20T02:30:03.752Z,18.44
2022-08-20T02:31:03.741Z,18.44
2022-08-20T02:32:23.880Z,18.44
2022-08-20T02:33:03.710Z,18.44
2022-08-20T02:34:14.670Z,18.44
2022-08-20T02:35:03.803Z,18.44
2022-08-20T02:36:03.819Z,18.44
2022-08-20T02:37:03.850Z,18.44
2022-08-20T02:38:03.913Z,18.44
2022-08-20T02:39:03.907Z,18.44
2022-08-20T02:40:03.864Z,18.44
2022-08-20T02:41:03.763Z,18.38
2022-08-20T02:42:03.914Z,18.38
2022-08-20T02:43:03.896Z,18.38
2022-08-20T02:44:04.006Z,18.38
2022-08-20T02:45:03.994Z,18.38
2022-08-20T02:46:04.076Z,18.38
2022-08-20T02:47:04.149Z,18.38
2022-08-20T02:48:04.164Z,18.38
2022-08-20T02:49:04.066Z,18.38
2022-08-20T02:50:04.088Z,18.38
2022-08-20T02:51:04.239Z,18.38
2022-08-20T02:52:04.224Z,18.38
2022-08-20T02:53:04.301Z,18.38
2022-08-20T02:54:04.312Z,18.38
2022-08-20T02:55:04.395Z,18.38
2022-08-20T02:56:04.321Z,18.38
2022-08-20T02:57:04.390Z,18.38
2022-08-20T02:58:03.510Z,18.38
2022-08-20T02:59:03.594Z,18.38
2022-08-20T03:00:03.611Z,18.38
2022-08-20T03:01:03.601Z,18.38
2022-08-20T03:02:03.512Z,18.38
2022-08-20T03:03:03.454Z,18.38
2022-08-20T03:04:03.505Z,18.38
2022-08-20T03:05:03.666Z,18.38
2022-08-20T03:06:03.658Z,18.38
2022-08-20T03:07:03.746Z,18.38
2022-08-20T03:08:03.830Z,18.38
2022-08-20T03:09:03.820Z,18.38
2022-08-20T03:10:03.910Z,18.38
2022-08-20T03:11:03.997Z,18.38
2022-08-20T03:12:03.905Z,18.38
2022-08-20T03:13:03.853Z,18.38
2022-08-20T03:14:03.910Z,18.38
2022-08-20T03:15:04.002Z,18.38
2022-08-20T03:16:03.978Z,18.38
2022-08-20T03:17:03.989Z,18.38
2022-08-20T03:18:03.984Z,18.38
2022-08-20T03:19:03.992Z,18.38
2022-08-20T03:20:03.984Z,18.38
2022-08-20T03:21:03.986Z,18.38
2022-08-20T03:22:04.072Z,18.38
2022-08-20T03:23:04.075Z,18.38
2022-08-20T03:24:04.075Z,18.38
2022-08-20T03:25:04.226Z,18.38
2022-08-20T03:26:04.153Z,18.38
2022-08-20T03:27:04.220Z,18.38
2022-08-20T03:28:04.227Z,18.38
2022-08-20T03:29:04.226Z,18.38
2022-08-20T03:30:04.220Z,18.38
2022-08-20T03:31:04.308Z,18.38
2022-08-20T03:32:07.627Z,18.38
2022-08-20T03:33:04.322Z,18.38
2022-08-20T03:34:04.305Z,18.38
2022-08-20T03:35:03.523Z,18.38
2022-08-20T03:36:03.505Z,18.38
2022-08-20T03:37:03.595Z,18.38
2022-08-20T03:38:03.495Z,18.38
2022-08-20T03:39:03.665Z,18.38
2022-08-20T03:40:03.661Z,18.31
2022-08-20T03:41:03.521Z,18.38
2022-08-20T03:42:03.597Z,18.38
2022-08-20T03:43:03.502Z,18.38
2022-08-20T03:44:03.586Z,18.38
2022-08-20T03:45:03.676Z,18.31
2022-08-20T03:46:03.676Z,18.31
2022-08-20T03:47:03.709Z,18.38
2022-08-20T03:48:03.741Z,18.38
2022-08-20T03:49:03.749Z,18.31
2022-08-20T03:50:03.748Z,18.38
2022-08-20T03:51:03.740Z,18.38
2022-08-20T03:52:03.766Z,18.38
2022-08-20T03:53:03.840Z,18.38
2022-08-20T03:54:03.831Z,18.38
2022-08-20T03:55:03.993Z,18.38
2022-08-20T03:56:03.980Z,18.38
2022-08-20T03:57:12.444Z,18.38
2022-08-20T03:58:04.232Z,18.38
2022-08-20T03:59:04.229Z,18.38
2022-08-20T04:00:04.165Z,18.38
2022-08-20T04:01:04.262Z,18.38
2022-08-20T04:02:04.241Z,18.38
2022-08-20T04:03:04.312Z,18.38
2022-08-20T04:04:04.397Z,18.38
2022-08-20T04:05:04.296Z,18.38
2022-08-20T04:06:04.303Z,18.38
2022-08-20T04:07:04.463Z,18.38
2022-08-20T04:08:04.553Z,18.38
2022-08-20T04:09:04.392Z,18.38
2022-08-20T04:10:03.426Z,18.38
2022-08-20T04:11:03.507Z,18.38
2022-08-20T04:12:03.585Z,18.38
2022-08-20T04:13:03.685Z,18.38
2022-08-20T04:14:03.608Z,18.38
2022-08-20T04:15:03.697Z,18.38
2022-08-20T04:16:03.701Z,18.38
2022-08-20T04:17:03.844Z,18.38
2022-08-20T04:18:03.745Z,18.38
2022-08-20T04:19:03.829Z,18.38
2022-08-20T04:20:03.835Z,18.38
2022-08-20T04:21:03.824Z,18.38
2022-08-20T04:22:03.990Z,18.38
2022-08-20T04:23:03.990Z,18.38
2022-08-20T04:24:04.145Z,18.38
2022-08-20T04:25:04.487Z,18.38
2022-08-20T04:26:03.515Z,18.38
2022-08-20T04:27:03.605Z,18.38
2022-08-20T04:28:03.673Z,18.38
2022-08-20T04:29:03.739Z,18.38
2022-08-20T04:30:03.676Z,18.38
2022-08-20T04:31:03.856Z,18.38
2022-08-20T04:32:05.740Z,18.38
2022-08-20T04:33:03.747Z,18.38
2022-08-20T04:34:03.742Z,18.38
2022-08-20T04:35:03.746Z,18.38
2022-08-20T04:36:03.989Z,18.38
2022-08-20T04:37:03.906Z,18.38
2022-08-20T04:38:03.816Z,18.31
2022-08-20T04:39:03.898Z,18.31
2022-08-20T04:40:03.946Z,18.31
2022-08-20T04:41:03.908Z,18.31
2022-08-20T04:42:03.909Z,18.31
2022-08-20T04:43:03.901Z,18.38
2022-08-20T04:44:03.979Z,18.31
2022-08-20T04:45:04.160Z,18.31
2022-08-20T04:46:04.151Z,18.38
2022-08-20T04:47:04.245Z,18.38
2022-08-20T04:48:04.233Z,18.38
2022-08-20T04:49:04.140Z,18.38
2022-08-20T04:50:04.166Z,18.38
2022-08-20T04:51:04.243Z,18.38
2022-08-20T04:52:04.243Z,18.38
2022-08-20T04:53:04.327Z,18.44
2022-08-20T04:54:04.463Z,18.44
2022-08-20T04:55:04.482Z,18.38
2022-08-20T04:56:04.470Z,18.44
2022-08-20T04:57:03.502Z,18.38
2022-08-20T04:58:03.523Z,18.44
2022-08-20T04:59:03.600Z,18.44
2022-08-20T05:00:03.585Z,18.44
2022-08-20T05:01:03.993Z,18.44
2022-08-20T05:02:04.070Z,18.44
2022-08-20T05:03:03.987Z,18.44
2022-08-20T05:04:04.147Z,18.44
2022-08-20T05:05:04.059Z,18.44
2022-08-20T05:06:04.087Z,18.44
2022-08-20T05:07:04.237Z,18.44
2022-08-20T05:08:04.224Z,18.50
2022-08-20T05:09:04.292Z,18.50
2022-08-20T05:10:04.147Z,18.50
2022-08-20T05:11:06.840Z,18.50
2022-08-20T05:12:04.173Z,18.50
2022-08-20T05:13:04.151Z,18.50
2022-08-20T05:14:04.227Z,18.50
2022-08-20T05:15:04.226Z,18.50
2022-08-20T05:16:04.224Z,18.50
2022-08-20T05:17:04.244Z,18.50
2022-08-20T05:18:04.228Z,18.50
2022-08-20T05:19:04.312Z,18.50
2022-08-20T05:20:04.465Z,18.56
2022-08-20T05:21:04.391Z,18.56
2022-08-20T05:22:04.386Z,18.56
2022-08-20T05:23:04.480Z,18.56
2022-08-20T05:24:04.416Z,18.56
2022-08-20T05:25:03.515Z,18.56
2022-08-20T05:26:03.591Z,18.56
2022-08-20T05:27:03.507Z,18.56
2022-08-20T05:28:03.678Z,18.56
2022-08-20T05:29:03.660Z,18.56
2022-08-20T05:30:04.159Z,18.56
2022-08-20T05:31:04.226Z,18.62
2022-08-20T05:32:04.322Z,18.62
2022-08-20T05:33:04.306Z,18.62
2022-08-20T05:34:04.386Z,18.62
2022-08-20T05:35:03.517Z,18.62
2022-08-20T05:36:03.585Z,18.62
2022-08-20T05:37:03.680Z,18.62
2022-08-20T05:38:03.673Z,18.62
2022-08-20T05:39:03.666Z,18.62
2022-08-20T05:40:03.743Z,18.62
2022-08-20T05:41:03.993Z,18.62
2022-08-20T05:42:03.998Z,18.62
2022-08-20T05:43:03.908Z,18.62
2022-08-20T05:44:03.908Z,18.69
2022-08-20T05:45:03.927Z,18.62
2022-08-20T05:46:03.998Z,18.69
2022-08-20T05:47:04.129Z,18.69
2022-08-20T05:48:03.904Z,18.69
2022-08-20T05:49:03.911Z,18.69
2022-08-20T05:50:03.839Z,18.69
2022-08-20T05:51:03.904Z,18.69
2022-08-20T05:52:03.992Z,18.69
2022-08-20T05:53:04.072Z,18.69
2022-08-20T05:54:04.068Z,18.69
2022-08-20T05:55:04.147Z,18.69
2022-08-20T05:56:04.235Z,18.69
2022-08-20T05:57:04.156Z,18.75
2022-08-20T05:58:03.993Z,18.75
2022-08-20T05:59:04.065Z,18.75
2022-08-20T06:00:04.146Z,18.75
2022-08-20T06:01:04.144Z,18.75
2022-08-20T06:02:04.150Z,18.75
2022-08-20T06:03:04.151Z,18.75
2022-08-20T06:04:04.341Z,18.75
2022-08-20T06:05:04.237Z,18.81
2022-08-20T06:06:04.225Z,18.81
2022-08-20T06:07:04.156Z,18.81
2022-08-20T06:08:07.597Z,18.81
2022-08-20T06:09:04.395Z,18.81
2022-08-20T06:10:04.334Z,18.81
2022-08-20T06:11:04.305Z,18.81
2022-08-20T06:12:04.310Z,18.81
2022-08-20T06:13:04.230Z,18.81
2022-08-20T06:14:04.309Z,18.81
2022-08-20T06:15:04.384Z,18.81
2022-08-20T06:16:03.593Z,18.88
2022-08-20T06:17:03.671Z,18.88
2022-08-20T06:18:06.135Z,18.88
2022-08-20T06:19:03.683Z,18.88
2022-08-20T06:20:03.786Z,18.88
2022-08-20T06:21:03.870Z,18.88
2022-08-20T06:22:03.936Z,18.88
2022-08-20T06:23:03.928Z,18.88
2022-08-20T06:24:03.904Z,18.88
2022-08-20T06:25:03.899Z,18.88
2022-08-20T06:26:03.996Z,18.94
2022-08-20T06:27:03.986Z,18.88
2022-08-20T06:28:03.839Z,18.94
2022-08-20T06:29:03.898Z,18.94
2022-08-20T06:30:04.101Z,18.94
2022-08-20T06:31:03.992Z,18.94
2022-08-20T06:32:04.145Z,18.94
2022-08-20T06:33:04.151Z,18.94
2022-08-20T06:34:04.238Z,18.94
2022-08-20T06:35:04.237Z,18.94
2022-08-20T06:36:04.318Z,18.94
2022-08-20T06:37:04.304Z,19.00
2022-08-20T06:38:04.390Z,19.00
2022-08-20T06:39:03.512Z,19.00
2022-08-20T06:40:03.796Z,19.00
2022-08-20T06:41:03.527Z,19.00
2022-08-20T06:42:03.599Z,19.00
2022-08-20T06:43:03.745Z,19.00
2022-08-20T06:44:03.665Z,19.00
2022-08-20T06:45:03.824Z,19.00
2022-08-20T06:46:03.821Z,19.06
2022-08-20T06:47:03.744Z,19.06
2022-08-20T06:48:03.823Z,19.06
2022-08-20T06:49:03.911Z,19.06
2022-08-20T06:50:03.909Z,19.06
2022-08-20T06:51:03.842Z,19.06
2022-08-20T06:52:04.734Z,19.12
2022-08-20T06:53:04.063Z,19.06
2022-08-20T06:54:03.992Z,19.12
2022-08-20T06:55:03.912Z,19.12
2022-08-20T06:56:03.828Z,19.12
2022-08-20T06:57:03.913Z,19.12
2022-08-20T06:58:03.908Z,19.12
2022-08-20T06:59:03.994Z,19.19
2022-08-20T07:00:04.066Z,19.19
2022-08-20T07:01:09.081Z,19.19
2022-08-20T07:02:04.222Z,19.19
2022-08-20T07:03:04.146Z,19.25
2022-08-20T07:04:04.069Z,19.25
2022-08-20T07:05:04.082Z,19.25
2022-08-20T07:06:03.987Z,19.25
2022-08-20T07:07:04.068Z,19.25
2022-08-20T07:08:04.179Z,19.31
2022-08-20T07:09:04.148Z,19.31
2022-08-20T07:10:04.224Z,19.31
2022-08-20T07:11:04.303Z,19.31
2022-08-20T07:12:04.390Z,19.31
2022-08-20T07:13:04.487Z,19.38
2022-08-20T07:14:03.502Z,19.38
2022-08-20T07:15:03.525Z,19.38
2022-08-20T07:16:04.491Z,19.38
2022-08-20T07:17:04.486Z,19.44
2022-08-20T07:18:03.599Z,19.44
2022-08-20T07:19:03.513Z,19.44
2022-08-20T07:20:03.595Z,19.44
2022-08-20T07:21:03.588Z,19.44
2022-08-20T07:22:03.691Z,19.44
2022-08-20T07:23:03.670Z,19.50
2022-08-20T07:24:03.758Z,19.50
2022-08-20T07:25:03.826Z,19.50
2022-08-20T07:26:03.994Z,19.50
2022-08-20T07:27:04.077Z,19.50
2022-08-20T07:28:04.236Z,19.56
2022-08-20T07:29:04.144Z,19.56
2022-08-20T07:30:04.229Z,19.56
2022-08-20T07:31:12.462Z,19.62
2022-08-20T07:32:04.325Z,19.62
2022-08-20T07:33:04.217Z,19.62
2022-08-20T07:34:04.226Z,19.62
2022-08-20T07:35:04.390Z,19.62
2022-08-20T07:36:04.477Z,19.69
2022-08-20T07:37:03.607Z,19.69
2022-08-20T07:38:03.662Z,19.69
2022-08-20T07:39:05.756Z,19.75
2022-08-20T07:40:03.866Z,19.75
2022-08-20T07:41:03.747Z,19.75
2022-08-20T07:42:03.846Z,19.75
2022-08-20T07:43:03.992Z,19.81
2022-08-20T07:44:03.986Z,19.81
2022-08-20T07:45:04.154Z,19.81
2022-08-20T07:46:03.986Z,19.88
2022-08-20T07:47:04.143Z,19.88
2022-08-20T07:48:04.142Z,19.88
2022-08-20T07:49:04.308Z,19.94
2022-08-20T07:50:04.386Z,19.94
2022-08-20T07:51:03.594Z,19.94
2022-08-20T07:52:03.533Z,19.94
2022-08-20T07:53:03.606Z,20.00
2022-08-20T07:54:03.609Z,20.00
2022-08-20T07:55:03.590Z,20.00
2022-08-20T07:56:03.754Z,20.06
2022-08-20T07:57:03.667Z,20.06
2022-08-20T07:58:03.743Z,20.06
2022-08-20T07:59:03.689Z,20.06
2022-08-20T08:00:03.670Z,20.12
2022-08-20T08:01:03.779Z,20.12
2022-08-20T08:02:03.818Z,20.12
2022-08-20T08:03:03.826Z,20.19
2022-08-20T08:04:03.927Z,20.19
2022-08-20T08:05:03.844Z,20.19
2022-08-20T08:06:03.749Z,20.19
2022-08-20T08:07:03.908Z,20.25
2022-08-20T08:08:06.894Z,20.25
2022-08-20T08:09:03.837Z,20.25
2022-08-20T08:10:03.900Z,20.31
2022-08-20T08:11:03.827Z,20.31
2022-08-20T08:12:03.914Z,20.31
2022-08-20T08:13:03.935Z,20.38
2022-08-20T08:14:03.838Z,20.38
2022-08-20T08:15:03.986Z,20.38
2022-08-20T08:16:03.917Z,20.38
2022-08-20T08:17:03.988Z,20.44
2022-08-20T08:18:04.157Z,20.44
2022-08-20T08:19:04.009Z,20.44
2022-08-20T08:20:04.071Z,20.50
2022-08-20T08:21:03.985Z,20.50
2022-08-20T08:22:04.142Z,20.50
2022-08-20T08:23:04.147Z,20.50
2022-08-20T08:24:04.230Z,20.50
2022-08-20T08:25:04.480Z,20.56
2022-08-20T08:26:04.324Z,20.56
2022-08-20T08:27:04.388Z,20.56
2022-08-20T08:28:03.594Z,20.62
2022-08-20T08:29:03.504Z,20.62
2022-08-20T08:30:03.584Z,20.62
2022-08-20T08:31:03.589Z,20.69
2022-08-20T08:32:03.675Z,20.69
2022-08-20T08:33:03.590Z,20.69
2022-08-20T08:34:03.503Z,20.69
2022-08-20T08:35:04.555Z,20.75
2022-08-20T08:36:04.468Z,20.75
2022-08-20T08:37:04.406Z,20.75
2022-08-20T08:38:04.463Z,20.75
2022-08-20T08:39:03.669Z,20.81
2022-08-20T08:40:03.634Z,20.81
2022-08-20T08:41:03.585Z,20.81
2022-08-20T08:42:03.511Z,20.88
2022-08-20T08:43:03.595Z,20.81
2022-08-20T08:44:03.675Z,20.88
2022-08-20T08:45:03.606Z,20.88
2022-08-20T08:46:03.685Z,20.88
2022-08-20T08:47:03.826Z,20.88
2022-08-20T08:48:03.756Z,20.94
2022-08-20T08:49:03.830Z,20.94
2022-08-20T08:50:03.923Z,20.94
2022-08-20T08:51:03.834Z,21.00
2022-08-20T08:52:03.837Z,21.00
2022-08-20T08:53:03.994Z,21.00
2022-08-20T08:54:06.829Z,21.00
2022-08-20T08:55:04.149Z,21.06
2022-08-20T08:56:03.995Z,21.06
2022-08-20T08:57:04.067Z,21.06
2022-08-20T08:58:04.305Z,21.12
2022-08-20T08:59:04.221Z,21.12
2022-08-20T09:00:05.277Z,21.19
2022-08-20T09:01:06.899Z,21.19
2022-08-20T09:02:03.618Z,21.25
2022-08-20T09:03:03.922Z,21.25
2022-08-20T09:04:03.908Z,21.31
2022-08-20T09:05:03.916Z,21.31
2022-08-20T09:06:04.080Z,21.38
2022-08-20T09:07:03.904Z,21.44
2022-08-20T09:08:03.903Z,21.44
2022-08-20T09:09:03.988Z,21.44
2022-08-20T09:10:04.081Z,21.50
2022-08-20T09:11:04.072Z,21.50
2022-08-20T09:12:04.144Z,21.56
2022-08-20T09:13:04.234Z,21.56
2022-08-20T09:14:04.493Z,21.62
2022-08-20T09:15:03.510Z,21.62
2022-08-20T09:16:03.601Z,21.69
2022-08-20T09:17:03.615Z,21.69
2022-08-20T09:18:03.578Z,21.75
2022-08-20T09:19:03.590Z,21.75
2022-08-20T09:20:03.591Z,21.81
2022-08-20T09:21:03.583Z,21.81
2022-08-20T09:22:03.676Z,21.88
2022-08-20T09:23:03.740Z,21.88
2022-08-20T09:24:03.920Z,21.94
2022-08-20T09:25:03.825Z,21.94
2022-08-20T09:26:03.988Z,21.94
2022-08-20T09:27:03.981Z,22.00
2022-08-20T09:28:04.078Z,22.00
2022-08-20T09:29:04.076Z,22.00
2022-08-20T09:30:04.062Z,22.06
2022-08-20T09:31:04.421Z,22.06
2022-08-20T09:32:04.079Z,22.06
2022-08-20T09:33:04.160Z,22.12
2022-08-20T09:34:04.070Z,22.12
2022-08-20T09:35:07.742Z,22.12
2022-08-20T09:36:04.166Z,22.19
2022-08-20T09:37:04.319Z,22.19
2022-08-20T09:38:04.471Z,22.25
2022-08-20T09:39:04.386Z,22.25
2022-08-20T09:40:04.516Z,22.25
2022-08-20T09:41:04.405Z,22.25
2022-08-20T09:42:04.468Z,22.25
2022-08-20T09:43:04.470Z,22.25
2022-08-20T09:44:03.667Z,22.31
2022-08-20T09:45:03.684Z,22.31
2022-08-20T09:46:03.759Z,22.31
2022-08-20T09:47:03.836Z,22.38
2022-08-20T09:48:03.759Z,22.38
2022-08-20T09:49:03.746Z,22.38
2022-08-20T09:50:03.750Z,22.44
2022-08-20T09:51:03.830Z,22.44
2022-08-20T09:52:03.746Z,22.44
2022-08-20T09:53:03.827Z,22.44
2022-08-20T09:54:04.000Z,22.50
2022-08-20T09:55:03.916Z,22.50
2022-08-20T09:56:03.993Z,22.50
2022-08-20T09:57:04.066Z,22.56
2022-08-20T09:58:03.920Z,22.56
2022-08-20T09:59:03.907Z,22.56
2022-08-20T10:00:03.994Z,22.62
2022-08-20T10:01:04.140Z,22.62
2022-08-20T10:02:04.271Z,22.69
2022-08-20T10:03:04.408Z,22.69
2022-08-20T10:04:04.383Z,22.69
2022-08-20T10:05:04.553Z,22.75
2022-08-20T10:06:04.473Z,22.75
2022-08-20T10:07:03.593Z,22.81
2022-08-20T10:08:03.667Z,22.81
2022-08-20T10:09:03.748Z,22.81
2022-08-20T10:10:03.746Z,22.88
2022-08-20T10:11:03.899Z,22.94
2022-08-20T10:12:03.991Z,22.94
2022-08-20T10:13:04.020Z,22.94
2022-08-20T10:14:03.995Z,23.00
2022-08-20T10:15:04.152Z,23.00
2022-08-20T10:16:04.166Z,23.00
2022-08-20T10:17:04.141Z,23.06
2022-08-20T10:18:04.232Z,23.06
2022-08-20T10:19:04.239Z,23.12
2022-08-20T10:20:04.315Z,23.12
2022-08-20T10:21:04.408Z,23.12
2022-08-20T10:22:04.461Z,23.12
2022-08-20T10:23:04.482Z,23.19
2022-08-20T10:24:04.471Z,23.19
2022-08-20T10:25:04.464Z,23.19
2022-08-20T10:26:04.465Z,23.19
2022-08-20T10:27:03.511Z,23.25
2022-08-20T10:28:03.502Z,23.25
2022-08-20T10:29:03.589Z,23.31
2022-08-20T10:30:03.506Z,23.38
2022-08-20T10:31:03.677Z,23.38
2022-08-20T10:32:03.588Z,23.38
2022-08-20T10:33:03.686Z,23.44
2022-08-20T10:34:03.759Z,23.44
2022-08-20T10:35:03.751Z,23.44
2022-08-20T10:36:03.834Z,23.44
2022-08-20T10:37:03.824Z,23.50
2022-08-20T10:38:03.829Z,23.50
2022-08-20T10:39:03.827Z,23.50
2022-08-20T10:40:03.851Z,23.50
2022-08-20T10:41:03.915Z,23.50
2022-08-20T10:42:03.951Z,23.56
2022-08-20T10:43:04.068Z,23.56
2022-08-20T10:44:04.067Z,23.56
2022-08-20T10:45:04.153Z,23.62
2022-08-20T10:46:04.247Z,23.62
2022-08-20T10:47:04.151Z,23.62
2022-08-20T10:48:04.068Z,23.69
2022-08-20T10:49:04.349Z,23.69
2022-08-20T10:50:04.142Z,23.75
2022-08-20T10:51:04.397Z,23.75
2022-08-20T10:52:05.997Z,23.75
2022-08-20T10:53:04.319Z,23.81
2022-08-20T10:54:06.276Z,23.81
2022-08-20T10:55:04.480Z,23.81
2022-08-20T10:56:03.672Z,23.88
2022-08-20T10:57:03.671Z,23.94
2022-08-20T10:58:03.508Z,23.94
2022-08-20T10:59:03.581Z,23.94
2022-08-20T11:00:03.684Z,23.94
2022-08-20T11:01:03.533Z,24.00
2022-08-20T11:02:03.582Z,24.00
2022-08-20T11:03:03.743Z,24.00
2022-08-20T11:04:03.677Z,24.00
2022-08-20T11:05:03.599Z,24.00
2022-08-20T11:06:03.661Z,24.00
2022-08-20T11:07:03.584Z,24.00
2022-08-20T11:08:03.935Z,24.00
2022-08-20T11:09:03.593Z,23.94
2022-08-20T11:10:03.839Z,24.00
2022-08-20T11:11:03.753Z,24.00
2022-08-20T11:12:03.905Z,24.00
2022-08-20T11:13:03.917Z,24.00
2022-08-20T11:14:03.991Z,24.00
2022-08-20T11:15:03.908Z,24.00
2022-08-20T11:16:04.081Z,24.06
2022-08-20T11:17:04.151Z,24.06
2022-08-20T11:18:04.226Z,24.06
2022-08-20T11:19:04.169Z,24.06
2022-08-20T11:20:04.069Z,24.06
2022-08-20T11:21:04.230Z,24.12
2022-08-20T11:22:04.221Z,24.12
2022-08-20T11:23:04.382Z,24.12
2022-08-20T11:24:04.386Z,24.12
2022-08-20T11:25:04.377Z,24.06
2022-08-20T11:26:04.469Z,24.06
2022-08-20T11:27:04.507Z,24.06
2022-08-20T11:28:03.509Z,24.06
2022-08-20T11:29:03.584Z,24.00
2022-08-20T11:30:03.589Z,24.06
2022-08-20T11:31:03.594Z,24.06
2022-08-20T11:32:03.528Z,24.06
2022-08-20T11:33:03.514Z,24.00
2022-08-20T11:34:03.581Z,24.00
2022-08-20T11:35:14.031Z,24.00
2022-08-20T11:36:03.594Z,24.00
2022-08-20T11:37:03.669Z,23.94
2022-08-20T11:38:03.676Z,23.88
2022-08-20T11:39:03.765Z,23.88
2022-08-20T11:40:03.783Z,23.81
2022-08-20T11:41:03.744Z,23.81
2022-08-20T11:42:03.824Z,23.88
2022-08-20T11:43:14.458Z,23.94
2022-08-20T11:44:20.523Z,23.94
2022-08-20T11:45:03.987Z,23.94
2022-08-20T11:46:04.147Z,23.88
2022-08-20T11:47:04.155Z,23.81
2022-08-20T11:48:04.063Z,23.81
2022-08-20T11:49:04.235Z,23.81
2022-08-20T11:50:04.146Z,23.81
2022-08-20T11:51:04.239Z,23.88
2022-08-20T11:52:04.149Z,23.94
2022-08-20T11:53:04.185Z,24.00
2022-08-20T11:54:04.260Z,24.00
2022-08-20T11:55:04.221Z,24.06
2022-08-20T11:56:04.311Z,24.06
2022-08-20T11:57:04.303Z,24.12
2022-08-20T11:58:04.475Z,24.19
2022-08-20T11:59:03.507Z,24.19
2022-08-20T12:00:03.505Z,24.19
2022-08-20T12:01:03.746Z,24.19
2022-08-20T12:02:04.039Z,24.25
2022-08-20T12:03:03.857Z,24.25
2022-08-20T12:04:03.908Z,24.25
2022-08-20T12:05:03.915Z,24.25
2022-08-20T12:06:03.822Z,24.25
2022-08-20T12:07:03.821Z,24.19
2022-08-20T12:08:03.817Z,24.19
2022-08-20T12:09:03.829Z,24.25
2022-08-20T12:10:03.923Z,24.25
2022-08-20T12:11:03.905Z,24.19
2022-08-20T12:12:03.909Z,24.19
2022-08-20T12:13:04.526Z,24.12
2022-08-20T12:14:03.910Z,24.12
2022-08-20T12:15:03.911Z,24.12
2022-08-20T12:16:03.987Z,24.19
2022-08-20T12:17:04.156Z,24.19
2022-08-20T12:18:04.077Z,24.19
2022-08-20T12:19:04.075Z,24.19
2022-08-20T12:20:04.070Z,24.19
2022-08-20T12:21:04.074Z,24.19
2022-08-20T12:22:17.565Z,24.25
2022-08-20T12:23:04.069Z,24.31
2022-08-20T12:24:04.065Z,24.31
2022-08-20T12:25:04.312Z,24.38
2022-08-20T12:26:04.307Z,24.38
2022-08-20T12:27:04.319Z,24.44
2022-08-20T12:28:04.462Z,24.50
2022-08-20T12:29:04.463Z,24.50
2022-08-20T12:30:03.592Z,24.50
2022-08-20T12:31:03.520Z,24.50
2022-08-20T12:32:03.510Z,24.50
2022-08-20T12:33:03.510Z,24.44
2022-08-20T12:34:03.524Z,24.44
2022-08-20T12:35:03.591Z,24.44
2022-08-20T12:36:03.506Z,24.44
2022-08-20T12:37:03.589Z,24.44
2022-08-20T12:38:03.665Z,24.50
2022-08-20T12:39:03.747Z,24.56
2022-08-20T12:40:03.793Z,24.56
2022-08-20T12:41:03.751Z,24.62
2022-08-20T12:42:03.769Z,24.62
2022-08-20T12:43:03.837Z,24.62
2022-08-20T12:44:03.826Z,24.69
2022-08-20T12:45:03.907Z,24.69
2022-08-20T12:46:03.821Z,24.69
2022-08-20T12:47:03.990Z,24.75
2022-08-20T12:48:03.997Z,24.69
2022-08-20T12:49:04.072Z,24.69
2022-08-20T12:50:04.315Z,24.75
2022-08-20T12:51:04.333Z,24.69
2022-08-20T12:52:04.319Z,24.69